Terminal Aerodrome Forecast
Issued by NWS Omaha/Valley, NE

Home | Current Version | Previous Version | Graphics & Text | Print | Product List | Glossary On
Versions: 1 2 3 4 5 6 7 8 9 10 11 12 13 14 15 16 17
000
FTUS43 KOAX 161947 AAA
TAFOFK
TAF AMD
KOFK 161947Z 1620/1718 32011KT P6SM VCSH SCT008 BKN018
     FM162200 32009KT P6SM VCSH SCT018 BKN050
     FM170000 31010KT P6SM BKN050=

USA.gov is the U.S. government's official web portal to all federal, state and local government web resources and services.